createdAt,value
2022-12-29T00:00:23.292Z,53.48
2022-12-29T00:02:54.202Z,54.46
2022-12-29T00:05:27.749Z,55.01
2022-12-29T00:07:55.976Z,55.79
2022-12-29T00:10:24.604Z,56.18
2022-12-29T00:13:09.973Z,56.08
2022-12-29T00:15:41.205Z,56.99
2022-12-29T00:18:11.237Z,56.94
2022-12-29T00:21:03.953Z,57.23
2022-12-29T00:23:45.844Z,57.80
2022-12-29T00:26:34.020Z,57.92
2022-12-29T00:29:20.005Z,58.43
2022-12-29T00:32:05.583Z,58.37
2022-12-29T00:34:52.463Z,58.41
2022-12-29T00:37:43.668Z,58.30
2022-12-29T00:40:29.537Z,58.44
2022-12-29T00:43:14.627Z,58.25
2022-12-29T00:45:43.047Z,57.95
2022-12-29T00:48:12.319Z,57.94
2022-12-29T00:50:50.531Z,57.53
2022-12-29T00:53:22.186Z,57.55
2022-12-29T00:55:51.809Z,57.28
2022-12-29T00:58:21.837Z,57.57
2022-12-29T01:00:50.135Z,57.45
2022-12-29T01:03:18.193Z,56.96
2022-12-29T01:05:47.233Z,57.34
2022-12-29T01:08:16.402Z,57.05
2022-12-29T01:10:45.612Z,57.28
2022-12-29T01:13:13.858Z,57.17
2022-12-29T01:15:42.315Z,57.34
2022-12-29T01:18:10.608Z,57.36
2022-12-29T01:20:38.636Z,57.82
2022-12-29T01:23:06.642Z,58.03
2022-12-29T01:25:35.285Z,58.01
2022-12-29T01:28:05.732Z,58.32
2022-12-29T01:30:35.032Z,58.64
2022-12-29T01:33:07.108Z,59.19
2022-12-29T01:35:35.393Z,59.53
2022-12-29T01:38:03.526Z,59.71
2022-12-29T01:40:31.921Z,59.71
2022-12-29T01:43:00.727Z,60.51
2022-12-29T01:45:31.792Z,60.63
2022-12-29T01:48:03.916Z,61.13
2022-12-29T01:50:35.648Z,61.14
2022-12-29T01:53:10.203Z,61.57
2022-12-29T01:55:43.103Z,61.94
2022-12-29T01:58:14.431Z,61.61
2022-12-29T02:00:44.484Z,61.83
2022-12-29T02:03:14.051Z,61.72
2022-12-29T02:05:48.386Z,61.94
2022-12-29T02:08:16.526Z,61.98
2022-12-29T02:10:46.394Z,62.01
2022-12-29T02:13:17.073Z,62.12
2022-12-29T02:16:00.334Z,62.37
2022-12-29T02:18:42.937Z,61.94
2022-12-29T02:21:49.424Z,62.43
2022-12-29T02:24:52.199Z,62.40
2022-12-29T02:27:50.072Z,61.53
2022-12-29T02:30:40.808Z,61.21
2022-12-29T02:33:31.806Z,61.26
2022-12-29T02:36:08.703Z,61.06
2022-12-29T02:38:52.777Z,60.97
2022-12-29T02:41:28.354Z,60.93
2022-12-29T02:44:01.753Z,60.97
2022-12-29T02:46:38.012Z,59.72
2022-12-29T02:49:13.562Z,60.43
2022-12-29T02:51:50.128Z,59.92
2022-12-29T02:54:38.026Z,58.75
2022-12-29T02:57:09.957Z,58.88
2022-12-29T02:59:38.706Z,58.57
2022-12-29T03:02:32.464Z,58.78
2022-12-29T03:05:32.932Z,57.95
2022-12-29T03:08:08.510Z,58.46
2022-12-29T03:10:43.724Z,57.64
2022-12-29T03:13:38.932Z,57.47
2022-12-29T03:16:14.994Z,57.25
2022-12-29T03:18:54.059Z,56.37
2022-12-29T03:21:49.167Z,56.25
2022-12-29T03:24:18.186Z,55.29
2022-12-29T03:26:49.442Z,54.93
2022-12-29T03:29:19.458Z,55.00
2022-12-29T03:31:50.496Z,54.61
2022-12-29T03:34:22.783Z,54.84
2022-12-29T03:36:55.862Z,54.91
2022-12-29T03:39:27.945Z,54.51
2022-12-29T03:42:04.819Z,54.79
2022-12-29T03:44:40.285Z,54.77
2022-12-29T03:47:09.342Z,54.77
2022-12-29T03:50:13.883Z,55.31
2022-12-29T03:52:44.103Z,54.23
2022-12-29T03:55:12.402Z,54.36
2022-12-29T03:57:41.104Z,54.47
2022-12-29T04:00:11.084Z,54.02
2022-12-29T04:02:42.205Z,53.94
2022-12-29T04:05:11.825Z,53.61
2022-12-29T04:07:40.195Z,53.71
2022-12-29T04:10:10.589Z,53.48
2022-12-29T04:12:39.105Z,53.61
2022-12-29T04:15:08.314Z,53.80
2022-12-29T04:17:36.741Z,54.03
2022-12-29T04:20:19.386Z,54.00
2022-12-29T04:22:47.702Z,54.32
2022-12-29T04:25:41.828Z,54.03
2022-12-29T04:28:25.756Z,54.89
2022-12-29T04:31:11.870Z,54.61
2022-12-29T04:33:45.579Z,55.29
2022-12-29T04:36:15.058Z,55.57
2022-12-29T04:38:43.554Z,55.49
2022-12-29T04:41:14.931Z,55.41
2022-12-29T04:43:43.153Z,55.02
2022-12-29T04:46:11.823Z,55.49
2022-12-29T04:48:59.705Z,56.42
2022-12-29T04:51:30.515Z,57.41
2022-12-29T04:54:04.074Z,58.28
2022-12-29T04:56:42.064Z,58.40
2022-12-29T05:02:26.062Z,58.65
2022-12-29T05:05:03.362Z,58.89
2022-12-29T05:07:36.692Z,58.80
2022-12-29T05:10:09.654Z,58.70
2022-12-29T05:12:44.773Z,58.71
2022-12-29T05:18:00.679Z,58.37
2022-12-29T05:20:30.953Z,58.32
2022-12-29T05:29:07.682Z,58.35
2022-12-29T05:31:36.810Z,58.75
2022-12-29T05:34:05.714Z,58.52
2022-12-29T05:36:37.700Z,58.47
2022-12-29T05:39:06.522Z,58.57
2022-12-29T05:41:34.579Z,58.67
2022-12-29T05:44:04.261Z,58.85
2022-12-29T05:46:32.628Z,58.67
2022-12-29T05:49:01.610Z,58.64
2022-12-29T05:51:29.891Z,58.80
2022-12-29T05:53:58.513Z,58.97
2022-12-29T05:56:28.026Z,58.11
2022-12-29T05:58:56.564Z,57.72
2022-12-29T06:01:26.649Z,58.18
2022-12-29T06:03:55.904Z,58.52
2022-12-29T06:06:26.518Z,59.32
2022-12-29T06:08:56.025Z,59.31
2022-12-29T06:11:28.379Z,59.15
2022-12-29T06:13:57.951Z,59.46
2022-12-29T06:16:46.588Z,59.59
2022-12-29T06:19:30.018Z,59.87
2022-12-29T06:22:12.142Z,59.64
2022-12-29T06:24:45.791Z,59.79
2022-12-29T06:27:16.034Z,59.55
2022-12-29T06:29:44.392Z,58.84
2022-12-29T06:32:15.340Z,59.08
2022-12-29T06:34:43.368Z,57.54
2022-12-29T06:37:11.502Z,56.63
2022-12-29T06:39:39.738Z,56.96
2022-12-29T06:42:07.772Z,57.64
2022-12-29T06:44:35.893Z,59.08
2022-12-29T06:47:03.993Z,59.09
2022-12-29T06:49:33.486Z,60.01
2022-12-29T06:52:09.066Z,60.69
2022-12-29T06:54:40.811Z,60.49
2022-12-29T06:57:08.883Z,60.13
2022-12-29T06:59:37.128Z,60.25
2022-12-29T07:02:05.300Z,59.50
2022-12-29T07:04:34.940Z,59.07
2022-12-29T07:07:03.009Z,58.11
2022-12-29T07:09:31.156Z,57.75
2022-12-29T07:11:59.413Z,57.36
2022-12-29T07:14:27.425Z,57.46
2022-12-29T07:16:55.564Z,56.88
2022-12-29T07:19:23.573Z,57.75
2022-12-29T07:21:52.973Z,58.55
2022-12-29T07:24:20.949Z,59.34
2022-12-29T07:26:48.969Z,59.76
2022-12-29T07:29:16.864Z,60.02
2022-12-29T07:31:45.348Z,60.30
2022-12-29T07:34:13.318Z,60.29
2022-12-29T07:36:41.333Z,60.75
2022-12-29T07:39:10.737Z,60.79
2022-12-29T07:41:38.782Z,60.99
2022-12-29T07:44:06.874Z,61.01
2022-12-29T07:46:56.437Z,61.02
2022-12-29T07:49:23.228Z,61.20
2022-12-29T07:51:51.369Z,60.84
2022-12-29T07:54:21.042Z,60.67
2022-12-29T07:56:49.324Z,60.67
2022-12-29T07:59:17.409Z,60.94
2022-12-29T08:01:45.643Z,60.69
2022-12-29T08:04:13.778Z,60.44
2022-12-29T08:06:41.857Z,60.00
2022-12-29T08:09:15.058Z,59.76
2022-12-29T08:11:47.925Z,59.47
2022-12-29T08:14:16.911Z,59.08
2022-12-29T08:16:46.149Z,58.68
2022-12-29T08:19:15.244Z,57.99
2022-12-29T08:21:43.399Z,57.96
2022-12-29T08:24:11.831Z,58.35
2022-12-29T08:26:40.891Z,56.60
2022-12-29T08:31:58.781Z,54.97
2022-12-29T08:34:26.915Z,53.63
2022-12-29T08:36:54.907Z,51.94
2022-12-29T08:39:23.004Z,51.69
2022-12-29T08:41:51.911Z,51.49
2022-12-29T08:44:21.286Z,51.91
2022-12-29T08:46:49.915Z,51.43
2022-12-29T08:49:19.585Z,51.49
2022-12-29T08:51:47.758Z,51.85
2022-12-29T08:54:15.903Z,52.15
2022-12-29T08:56:44.167Z,52.74
2022-12-29T08:59:12.654Z,52.92
2022-12-29T09:01:41.769Z,52.47
2022-12-29T09:04:15.523Z,51.30
2022-12-29T09:06:46.454Z,51.11
2022-12-29T09:09:15.171Z,50.08
2022-12-29T09:11:48.124Z,50.48
2022-12-29T09:17:44.698Z,52.28
2022-12-29T09:20:16.813Z,56.41
2022-12-29T09:22:47.527Z,58.49
2022-12-29T09:25:16.150Z,59.16
2022-12-29T09:27:44.843Z,59.64
2022-12-29T09:30:15.856Z,59.60
2022-12-29T09:32:45.847Z,59.87
2022-12-29T09:35:15.467Z,60.04
2022-12-29T09:37:43.877Z,60.25
2022-12-29T09:40:26.205Z,60.84
2022-12-29T09:43:07.356Z,60.45
2022-12-29T09:45:43.640Z,59.54
2022-12-29T09:48:19.210Z,59.04
2022-12-29T09:50:52.476Z,58.71
2022-12-29T09:53:27.213Z,57.60
2022-12-29T09:55:59.461Z,57.71
2022-12-29T09:58:35.355Z,58.19
2022-12-29T10:01:06.864Z,58.05
2022-12-29T10:03:48.165Z,57.61
2022-12-29T10:06:20.412Z,57.12
2022-12-29T10:08:55.123Z,57.33
2022-12-29T10:11:36.324Z,57.29
2022-12-29T10:14:21.039Z,57.41
2022-12-29T10:16:58.943Z,57.26
2022-12-29T10:19:38.452Z,57.13
2022-12-29T10:22:20.361Z,56.88
2022-12-29T10:24:51.675Z,57.07
2022-12-29T10:27:21.927Z,56.86
2022-12-29T10:29:54.507Z,56.69
2022-12-29T10:32:37.509Z,56.59
2022-12-29T10:35:12.540Z,56.58
2022-12-29T10:37:45.496Z,56.20
2022-12-29T10:40:27.691Z,55.88
2022-12-29T10:43:01.313Z,55.65
2022-12-29T10:45:34.740Z,55.40
2022-12-29T10:48:06.166Z,54.63
2022-12-29T10:50:37.380Z,53.95
2022-12-29T10:53:07.903Z,53.68
2022-12-29T10:55:38.716Z,53.43
2022-12-29T10:58:13.687Z,52.01
2022-12-29T11:00:41.874Z,52.18
2022-12-29T11:03:32.371Z,53.05
2022-12-29T11:06:06.952Z,54.29
2022-12-29T11:08:40.088Z,54.99
2022-12-29T11:11:12.459Z,55.90
2022-12-29T11:13:52.950Z,56.66
2022-12-29T11:16:32.398Z,57.12
2022-12-29T11:19:01.242Z,57.43
2022-12-29T11:21:34.198Z,57.79
2022-12-29T11:24:04.831Z,58.03
2022-12-29T11:26:34.670Z,57.84
2022-12-29T11:29:27.827Z,56.71
2022-12-29T11:31:59.264Z,56.23
2022-12-29T11:34:31.447Z,55.50
2022-12-29T11:37:04.581Z,54.77
2022-12-29T11:39:36.792Z,54.48
2022-12-29T11:42:06.028Z,54.12
2022-12-29T11:44:39.661Z,53.49
2022-12-29T11:47:11.223Z,53.65
2022-12-29T11:49:40.600Z,53.64
2022-12-29T11:52:10.521Z,53.69
2022-12-29T11:54:40.392Z,53.46
2022-12-29T11:57:14.601Z,53.39
2022-12-29T11:59:45.603Z,53.53
2022-12-29T12:02:43.670Z,53.31
2022-12-29T12:05:32.216Z,53.50
2022-12-29T12:08:07.921Z,52.74
2022-12-29T12:10:45.821Z,52.88
2022-12-29T12:13:29.119Z,52.58
2022-12-29T12:16:04.512Z,52.25
2022-12-29T12:18:42.676Z,52.55
2022-12-29T12:21:20.999Z,52.10
2022-12-29T12:24:26.255Z,51.58
2022-12-29T12:27:02.362Z,51.72
2022-12-29T12:29:40.789Z,51.64
2022-12-29T12:32:18.225Z,51.23
2022-12-29T12:34:48.280Z,51.27
2022-12-29T12:37:39.175Z,51.72
2022-12-29T12:40:27.849Z,52.07
2022-12-29T12:43:10.164Z,52.59
2022-12-29T12:45:54.251Z,51.76
2022-12-29T12:48:46.658Z,52.24
2022-12-29T12:51:25.819Z,51.92
2022-12-29T12:54:08.275Z,52.03
2022-12-29T12:56:49.971Z,51.98
2022-12-29T12:59:32.380Z,52.35
2022-12-29T13:02:09.166Z,51.98
2022-12-29T13:05:27.165Z,52.42
2022-12-29T13:08:18.195Z,52.55
2022-12-29T13:10:53.991Z,52.82
2022-12-29T13:13:44.708Z,52.19
2022-12-29T13:16:20.011Z,52.11
2022-12-29T13:18:54.947Z,52.11
2022-12-29T13:21:34.875Z,52.24
2022-12-29T13:24:15.223Z,52.25
2022-12-29T13:26:50.250Z,52.11
2022-12-29T13:29:25.820Z,52.73
2022-12-29T13:32:04.778Z,52.79
2022-12-29T13:34:41.979Z,53.08
2022-12-29T13:37:14.693Z,53.14
2022-12-29T13:39:48.489Z,52.77
2022-12-29T13:42:18.878Z,51.98
2022-12-29T13:44:50.810Z,51.91
2022-12-29T13:47:29.629Z,51.36
2022-12-29T13:50:00.930Z,51.20
2022-12-29T13:52:38.969Z,50.54
2022-12-29T13:55:25.444Z,50.24
2022-12-29T13:57:59.383Z,49.80
2022-12-29T14:00:31.446Z,49.99
2022-12-29T14:03:28.217Z,49.96
2022-12-29T14:06:14.315Z,50.07
2022-12-29T14:08:42.565Z,50.82
2022-12-29T14:11:14.600Z,50.75
2022-12-29T14:13:45.595Z,51.08
2022-12-29T14:16:27.907Z,52.16
2022-12-29T14:18:59.534Z,53.35
2022-12-29T14:21:31.047Z,54.77
2022-12-29T14:24:30.876Z,55.19
2022-12-29T14:27:00.628Z,55.90
2022-12-29T14:29:46.586Z,56.43
2022-12-29T14:32:43.021Z,56.85
2022-12-29T14:35:43.022Z,57.15
2022-12-29T14:38:26.077Z,56.78
2022-12-29T14:40:56.702Z,57.13
2022-12-29T14:43:29.276Z,55.29
2022-12-29T14:46:02.179Z,54.85
2022-12-29T14:48:38.992Z,53.71
2022-12-29T14:51:22.581Z,52.38
2022-12-29T14:53:52.469Z,51.63
2022-12-29T14:56:26.039Z,51.04
2022-12-29T14:58:58.217Z,50.67
2022-12-29T15:01:30.708Z,50.89
2022-12-29T15:04:02.872Z,51.01
2022-12-29T15:06:32.557Z,51.06
2022-12-29T15:09:07.300Z,51.55
2022-12-29T15:11:50.312Z,51.71
2022-12-29T15:14:35.319Z,51.67
2022-12-29T15:17:12.125Z,51.32
2022-12-29T15:19:40.160Z,51.93
2022-12-29T15:22:08.552Z,52.05
2022-12-29T15:24:42.489Z,52.09
2022-12-29T15:27:16.575Z,52.38
2022-12-29T15:29:47.862Z,52.07
2022-12-29T15:32:22.552Z,51.59
2022-12-29T15:34:52.898Z,51.05
2022-12-29T15:37:23.289Z,50.75
2022-12-29T15:39:52.024Z,50.58
2022-12-29T15:42:34.856Z,50.24
2022-12-29T15:45:11.393Z,50.44
2022-12-29T15:47:41.986Z,50.96
2022-12-29T15:50:19.730Z,51.24
2022-12-29T15:52:48.172Z,51.52
2022-12-29T15:55:23.756Z,51.50
2022-12-29T15:57:51.775Z,51.80
2022-12-29T16:00:26.847Z,51.85
2022-12-29T16:02:56.834Z,52.35
2022-12-29T16:05:25.212Z,52.30
2022-12-29T16:07:59.225Z,52.66
2022-12-29T16:10:38.063Z,52.75
2022-12-29T16:16:23.206Z,52.66
2022-12-29T16:18:57.806Z,52.21
2022-12-29T16:21:30.377Z,52.50
2022-12-29T16:24:03.648Z,52.50
2022-12-29T16:26:31.985Z,52.91
2022-12-29T16:29:01.973Z,52.64
2022-12-29T16:31:37.729Z,52.48
2022-12-29T16:34:23.610Z,52.96
2022-12-29T16:36:58.356Z,53.00
2022-12-29T16:39:31.339Z,53.40
2022-12-29T16:41:59.923Z,53.26
2022-12-29T16:44:32.383Z,53.38
2022-12-29T16:47:23.165Z,53.17
2022-12-29T16:49:54.844Z,52.60
2022-12-29T16:52:27.912Z,52.54
2022-12-29T16:54:58.507Z,51.83
2022-12-29T16:57:29.992Z,52.21
2022-12-29T17:00:01.416Z,52.07
2022-12-29T17:02:33.109Z,52.09
2022-12-29T17:05:01.613Z,52.08
2022-12-29T17:07:30.392Z,52.38
2022-12-29T17:09:58.380Z,52.35
2022-12-29T17:12:28.630Z,52.72
2022-12-29T17:14:59.674Z,52.74
2022-12-29T17:17:34.695Z,51.93
2022-12-29T17:20:05.513Z,51.95
2022-12-29T17:22:33.966Z,52.09
2022-12-29T17:25:03.894Z,52.23
2022-12-29T17:27:37.256Z,52.21
2022-12-29T17:30:11.663Z,52.44
2022-12-29T17:32:41.924Z,52.58
2022-12-29T17:35:16.359Z,52.73
2022-12-29T17:37:45.412Z,53.20
2022-12-29T17:40:16.788Z,53.28
2022-12-29T17:42:46.869Z,53.40
2022-12-29T17:45:17.915Z,53.88
2022-12-29T17:47:47.799Z,53.99
2022-12-29T17:50:18.579Z,54.16
2022-12-29T17:52:51.653Z,53.92
2022-12-29T17:55:21.797Z,54.06
2022-12-29T17:57:50.049Z,53.82
2022-12-29T18:00:20.807Z,53.58
2022-12-29T18:02:51.309Z,53.62
2022-12-29T18:05:21.857Z,53.43
2022-12-29T18:07:50.883Z,53.58
2022-12-29T18:10:19.340Z,53.25
2022-12-29T18:12:49.436Z,53.22
2022-12-29T18:15:23.275Z,53.28
2022-12-29T18:17:59.592Z,52.73
2022-12-29T18:20:27.617Z,53.46
2022-12-29T18:22:55.574Z,53.26
2022-12-29T18:25:27.809Z,53.04
2022-12-29T18:27:55.983Z,53.41
2022-12-29T18:30:24.221Z,53.57
2022-12-29T18:32:54.652Z,53.52
2022-12-29T18:35:29.592Z,53.29
2022-12-29T18:37:57.561Z,53.63
2022-12-29T18:40:25.660Z,53.23
2022-12-29T18:42:53.672Z,53.40
2022-12-29T18:45:23.889Z,53.26
2022-12-29T18:47:53.340Z,52.87
2022-12-29T18:50:23.784Z,52.72
2022-12-29T18:52:51.838Z,52.54
2022-12-29T18:55:22.741Z,52.65
2022-12-29T18:57:50.961Z,52.41
2022-12-29T19:00:20.688Z,52.47
2022-12-29T19:02:50.056Z,52.44
2022-12-29T19:05:24.411Z,52.70
2022-12-29T19:07:53.571Z,52.54
2022-12-29T19:10:23.065Z,52.69
2022-12-29T19:12:51.688Z,52.87
2022-12-29T19:15:24.599Z,52.87
2022-12-29T19:18:32.443Z,53.33
2022-12-29T19:20:45.493Z,53.45
2022-12-29T19:23:15.672Z,53.54
2022-12-29T19:25:44.614Z,53.47
2022-12-29T19:28:18.368Z,53.52
2022-12-29T19:30:51.913Z,53.53
2022-12-29T19:33:21.839Z,53.52
2022-12-29T19:35:51.575Z,53.89
2022-12-29T19:38:20.495Z,53.64
2022-12-29T19:40:50.662Z,53.51
2022-12-29T19:43:19.681Z,54.19
2022-12-29T19:45:48.905Z,53.98
2022-12-29T19:48:19.752Z,53.84
2022-12-29T19:50:47.908Z,53.88
2022-12-29T19:53:17.508Z,53.59
2022-12-29T19:55:46.316Z,53.63
2022-12-29T19:58:14.868Z,53.85
2022-12-29T20:00:44.050Z,53.94
2022-12-29T20:03:12.289Z,54.01
2022-12-29T20:05:41.563Z,54.18
2022-12-29T20:08:10.103Z,54.41
2022-12-29T20:10:39.725Z,54.61
2022-12-29T20:13:07.718Z,54.70
2022-12-29T20:15:35.773Z,54.46
2022-12-29T20:18:13.569Z,54.64
2022-12-29T20:20:42.945Z,54.98
2022-12-29T20:23:11.077Z,55.04
2022-12-29T20:25:45.198Z,55.42
2022-12-29T20:28:14.478Z,55.18
2022-12-29T20:30:42.532Z,55.66
2022-12-29T20:33:10.815Z,55.29
2022-12-29T20:35:39.079Z,55.33
2022-12-29T20:38:07.085Z,55.27
2022-12-29T20:40:42.291Z,55.46
2022-12-29T20:43:17.413Z,55.71
2022-12-29T20:45:46.123Z,55.25
2022-12-29T20:48:14.266Z,55.66
2022-12-29T20:50:42.511Z,55.72
2022-12-29T20:53:11.731Z,55.66
2022-12-29T20:55:41.258Z,55.67
2022-12-29T20:58:25.624Z,55.89
2022-12-29T21:00:55.979Z,55.71
2022-12-29T21:03:24.812Z,55.87
2022-12-29T21:05:55.345Z,56.04
2022-12-29T21:08:23.644Z,55.64
2022-12-29T21:10:53.099Z,55.90
2022-12-29T21:13:21.780Z,55.85
2022-12-29T21:15:50.231Z,56.17
2022-12-29T21:18:19.758Z,55.98
2022-12-29T21:20:56.809Z,56.59
2022-12-29T21:23:25.474Z,56.49
2022-12-29T21:25:53.859Z,56.17
2022-12-29T21:28:23.427Z,56.55
2022-12-29T21:30:52.420Z,56.29
2022-12-29T21:33:23.020Z,56.56
2022-12-29T21:35:50.981Z,56.33
2022-12-29T21:38:19.036Z,56.61
2022-12-29T21:40:47.116Z,56.48
2022-12-29T21:43:15.375Z,56.69
2022-12-29T21:45:42.576Z,56.52
2022-12-29T21:48:24.064Z,56.71
2022-12-29T21:51:30.727Z,56.41
2022-12-29T21:54:21.657Z,56.72
2022-12-29T21:56:50.196Z,56.49
2022-12-29T21:59:35.667Z,56.51
2022-12-29T22:02:22.788Z,56.85
2022-12-29T22:05:08.605Z,56.61
2022-12-29T22:07:55.586Z,56.39
2022-12-29T22:10:41.390Z,56.65
2022-12-29T22:13:09.552Z,56.85
2022-12-29T22:15:40.276Z,56.44
2022-12-29T22:18:08.410Z,56.53
2022-12-29T22:20:38.024Z,56.46
2022-12-29T22:23:07.619Z,56.72
2022-12-29T22:25:36.054Z,56.71
2022-12-29T22:28:05.307Z,56.27
2022-12-29T22:30:34.165Z,56.19
2022-12-29T22:33:02.674Z,56.23
2022-12-29T22:35:30.685Z,56.17
2022-12-29T22:37:58.738Z,56.36
2022-12-29T22:40:28.234Z,56.25
2022-12-29T22:42:56.344Z,56.44
2022-12-29T22:45:24.501Z,56.32
2022-12-29T22:47:52.682Z,56.65
2022-12-29T22:50:20.823Z,56.53
2022-12-29T22:52:49.067Z,56.62
2022-12-29T22:55:17.314Z,56.49
2022-12-29T22:57:46.812Z,56.69
2022-12-29T23:00:15.485Z,56.32
2022-12-29T23:02:43.780Z,56.44
2022-12-29T23:05:12.147Z,56.44
2022-12-29T23:07:40.223Z,56.58
2022-12-29T23:10:09.187Z,56.74
2022-12-29T23:12:37.381Z,56.43
2022-12-29T23:15:08.208Z,56.50
2022-12-29T23:17:37.135Z,56.53
2022-12-29T23:20:06.404Z,56.58
2022-12-29T23:22:34.557Z,56.82
2022-12-29T23:25:02.779Z,56.64
2022-12-29T23:27:33.290Z,56.83
2022-12-29T23:30:01.492Z,56.79
2022-12-29T23:32:31.170Z,56.88
2022-12-29T23:34:59.310Z,56.61
2022-12-29T23:37:27.425Z,57.04
2022-12-29T23:39:57.370Z,56.53
2022-12-29T23:42:25.725Z,57.05
2022-12-29T23:44:54.307Z,56.83
2022-12-29T23:47:22.397Z,56.83
2022-12-29T23:49:51.903Z,56.99
2022-12-29T23:52:19.933Z,57.08
2022-12-29T23:54:49.586Z,57.48
2022-12-29T23:57:17.885Z,57.30
2022-12-29T23:59:46.054Z,57.89
